createdAt,value
2022-10-29T00:00:55.182Z,8.76
2022-10-29T00:03:22.956Z,8.56
2022-10-29T00:06:05.277Z,8.84
2022-10-29T00:08:33.533Z,8.83
2022-10-29T00:11:15.907Z,8.57
2022-10-29T00:13:43.406Z,8.41
2022-10-29T00:16:21.688Z,8.60
2022-10-29T00:18:48.568Z,8.62
2022-10-29T00:21:18.361Z,8.37
2022-10-29T00:23:46.546Z,8.69
2022-10-29T00:26:14.094Z,8.39
2022-10-29T00:28:41.106Z,8.65
2022-10-29T00:31:19.413Z,7.82
2022-10-29T00:33:47.081Z,8.69
2022-10-29T00:36:17.201Z,8.51
2022-10-29T00:38:44.374Z,8.32
2022-10-29T00:41:13.487Z,8.34
2022-10-29T00:43:46.444Z,8.59
2022-10-29T00:46:28.762Z,8.35
2022-10-29T00:48:57.019Z,8.66
2022-10-29T00:51:24.660Z,8.60
2022-10-29T00:53:58.842Z,8.74
2022-10-29T00:56:27.567Z,8.67
2022-10-29T00:58:54.524Z,8.76
2022-10-29T01:01:21.466Z,8.30
2022-10-29T01:03:48.877Z,8.61
2022-10-29T01:06:15.636Z,8.44
2022-10-29T01:08:42.221Z,8.41
2022-10-29T01:11:41.360Z,8.43
2022-10-29T01:14:32.512Z,8.27
2022-10-29T01:17:25.241Z,8.39
2022-10-29T01:20:00.915Z,8.23
2022-10-29T01:22:37.781Z,7.82
2022-10-29T01:25:32.174Z,8.19
2022-10-29T01:28:41.329Z,8.10
2022-10-29T01:31:20.104Z,8.22
2022-10-29T01:34:40.260Z,8.21
2022-10-29T01:37:20.177Z,8.00
2022-10-29T01:40:03.359Z,8.19
2022-10-29T01:42:39.282Z,7.99
2022-10-29T01:45:27.029Z,8.09
2022-10-29T01:48:02.113Z,8.07
2022-10-29T01:50:28.988Z,7.79
2022-10-29T01:52:56.843Z,8.01
2022-10-29T01:55:35.188Z,7.74
2022-10-29T01:58:06.879Z,8.04
2022-10-29T02:01:10.855Z,7.62
2022-10-29T02:04:02.250Z,8.04
2022-10-29T02:07:06.675Z,8.12
2022-10-29T02:09:42.582Z,8.06
2022-10-29T02:12:33.549Z,7.65
2022-10-29T02:15:09.557Z,7.97
2022-10-29T02:17:37.119Z,7.60
2022-10-29T02:20:10.378Z,7.65
2022-10-29T02:22:37.123Z,7.67
2022-10-29T02:25:05.556Z,7.82
2022-10-29T02:27:32.302Z,7.67
2022-10-29T02:29:59.011Z,7.61
2022-10-29T02:32:25.807Z,7.62
2022-10-29T02:34:52.416Z,7.66
2022-10-29T02:37:19.041Z,7.59
2022-10-29T02:39:45.665Z,7.54
2022-10-29T02:42:12.241Z,7.60
2022-10-29T02:44:38.843Z,7.63
2022-10-29T02:47:05.420Z,7.92
2022-10-29T02:49:32.091Z,7.47
2022-10-29T02:51:58.703Z,8.02
2022-10-29T02:54:25.321Z,7.38
2022-10-29T02:56:51.932Z,7.59
2022-10-29T02:59:18.521Z,7.77
2022-10-29T03:01:45.243Z,7.39
2022-10-29T03:04:11.980Z,7.66
2022-10-29T03:06:38.621Z,7.34
2022-10-29T03:09:05.985Z,7.29
2022-10-29T03:11:32.780Z,7.22
2022-10-29T03:13:59.388Z,7.23
2022-10-29T03:16:26.107Z,7.45
2022-10-29T03:18:52.753Z,7.21
2022-10-29T03:21:19.346Z,7.15
2022-10-29T03:23:45.970Z,7.10
2022-10-29T03:26:12.634Z,7.15
2022-10-29T03:28:39.348Z,7.03
2022-10-29T03:31:06.064Z,6.95
2022-10-29T03:33:32.680Z,7.24
2022-10-29T03:36:00.923Z,7.27
2022-10-29T03:38:27.926Z,7.12
2022-10-29T03:40:55.172Z,7.23
2022-10-29T03:43:22.217Z,7.01
2022-10-29T03:45:52.935Z,7.25
2022-10-29T03:48:19.954Z,6.81
2022-10-29T03:50:57.298Z,6.84
2022-10-29T03:53:25.119Z,6.71
2022-10-29T03:55:53.121Z,6.69
2022-10-29T03:58:20.363Z,6.63
2022-10-29T04:01:05.020Z,6.76
2022-10-29T04:03:33.207Z,6.73
2022-10-29T04:06:02.791Z,6.84
2022-10-29T04:08:29.737Z,6.88
2022-10-29T04:10:56.394Z,6.41
2022-10-29T04:13:22.982Z,6.70
2022-10-29T04:15:54.905Z,6.77
2022-10-29T04:18:21.748Z,6.71
2022-10-29T04:29:08.321Z,6.67
2022-10-29T04:31:35.344Z,6.83
2022-10-29T04:34:02.162Z,6.57
2022-10-29T04:36:28.777Z,6.40
2022-10-29T04:38:55.357Z,6.63
2022-10-29T04:41:22.007Z,6.52
2022-10-29T04:43:48.588Z,6.70
2022-10-29T04:46:15.236Z,6.48
2022-10-29T04:48:41.839Z,6.71
2022-10-29T04:51:19.122Z,6.81
2022-10-29T04:53:45.832Z,6.61
2022-10-29T04:56:12.410Z,6.34
2022-10-29T04:58:39.061Z,6.22
2022-10-29T05:01:05.836Z,5.77
2022-10-29T05:03:33.951Z,6.15
2022-10-29T05:06:07.189Z,6.29
2022-10-29T05:08:34.124Z,6.40
2022-10-29T05:11:05.074Z,6.52
2022-10-29T05:13:31.849Z,6.23
2022-10-29T05:15:58.561Z,6.05
2022-10-29T05:18:25.518Z,5.95
2022-10-29T05:20:55.756Z,5.68
2022-10-29T05:23:22.997Z,6.14
2022-10-29T05:25:51.658Z,5.81
2022-10-29T05:28:21.089Z,6.09
2022-10-29T05:30:50.251Z,6.09
2022-10-29T05:33:19.348Z,6.31
2022-10-29T05:35:46.519Z,6.10
2022-10-29T05:38:14.659Z,6.23
2022-10-29T05:40:44.939Z,6.07
2022-10-29T05:43:14.053Z,5.85
2022-10-29T05:45:41.401Z,5.85
2022-10-29T05:48:08.696Z,6.10
2022-10-29T05:50:35.436Z,6.14
2022-10-29T05:53:04.661Z,5.87
2022-10-29T05:55:33.215Z,5.79
2022-10-29T05:58:02.061Z,6.07
2022-10-29T06:00:30.961Z,6.19
2022-10-29T06:02:58.024Z,5.88
2022-10-29T06:05:25.121Z,6.05
2022-10-29T06:07:59.288Z,6.15
2022-10-29T06:10:28.988Z,5.80
2022-10-29T06:12:55.850Z,6.30
2022-10-29T06:15:23.208Z,5.96
2022-10-29T06:17:50.213Z,5.94
2022-10-29T06:20:20.530Z,6.31
2022-10-29T06:22:47.491Z,6.40
2022-10-29T06:25:34.447Z,6.23
2022-10-29T06:28:03.196Z,6.30
2022-10-29T06:30:31.327Z,6.15
2022-10-29T06:32:58.295Z,6.07
2022-10-29T06:35:25.471Z,6.39
2022-10-29T06:37:52.229Z,6.47
2022-10-29T06:40:19.157Z,6.11
2022-10-29T06:42:45.739Z,6.14
2022-10-29T06:45:13.124Z,6.43
2022-10-29T06:47:41.019Z,6.05
2022-10-29T06:50:09.348Z,6.50
2022-10-29T06:52:36.388Z,6.34
2022-10-29T06:55:03.655Z,6.51
2022-10-29T06:57:30.463Z,6.29
2022-10-29T06:59:57.123Z,6.43
2022-10-29T07:02:24.106Z,6.39
2022-10-29T07:04:50.772Z,6.79
2022-10-29T07:07:17.747Z,6.79
2022-10-29T07:09:44.391Z,6.80
2022-10-29T07:12:11.579Z,6.86
2022-10-29T07:14:38.214Z,6.59
2022-10-29T07:17:04.881Z,6.51
2022-10-29T07:19:31.475Z,6.64
2022-10-29T07:21:58.084Z,6.96
2022-10-29T07:24:24.700Z,7.00
2022-10-29T07:26:51.364Z,6.71
2022-10-29T07:29:17.951Z,7.29
2022-10-29T07:31:44.528Z,7.16
2022-10-29T07:34:11.682Z,7.54
2022-10-29T07:36:38.305Z,7.34
2022-10-29T07:39:05.099Z,7.50
2022-10-29T07:41:32.169Z,7.55
2022-10-29T07:43:58.932Z,7.58
2022-10-29T07:46:25.481Z,7.85
2022-10-29T07:48:52.088Z,7.91
2022-10-29T07:51:18.785Z,8.11
2022-10-29T07:53:45.466Z,8.04
2022-10-29T07:56:12.046Z,7.84
2022-10-29T07:58:38.630Z,8.10
2022-10-29T08:01:05.458Z,8.48
2022-10-29T08:03:32.114Z,8.75
2022-10-29T08:05:58.711Z,8.74
2022-10-29T08:08:25.820Z,9.04
2022-10-29T08:10:52.462Z,9.34
2022-10-29T08:13:19.150Z,9.15
2022-10-29T08:15:46.758Z,9.48
2022-10-29T08:18:18.079Z,9.66
2022-10-29T08:20:45.652Z,10.07
2022-10-29T08:23:13.713Z,10.34
2022-10-29T08:25:43.694Z,10.30
2022-10-29T08:28:12.877Z,10.41
2022-10-29T08:30:40.349Z,10.27
2022-10-29T08:33:06.997Z,10.35
2022-10-29T08:35:34.090Z,10.38
2022-10-29T08:38:00.744Z,10.10
2022-10-29T08:40:47.174Z,10.59
2022-10-29T08:43:29.187Z,10.68
2022-10-29T08:45:58.921Z,10.50
2022-10-29T08:48:34.795Z,10.57
2022-10-29T08:51:16.010Z,10.63
2022-10-29T08:54:10.411Z,10.80
2022-10-29T08:57:05.738Z,10.57
2022-10-29T08:59:38.071Z,10.78
2022-10-29T09:02:04.732Z,10.90
2022-10-29T09:04:36.604Z,10.74
2022-10-29T09:07:18.398Z,11.11
2022-10-29T09:09:52.033Z,11.14
2022-10-29T09:12:27.349Z,11.23
2022-10-29T09:15:21.657Z,11.32
2022-10-29T09:18:12.761Z,11.39
2022-10-29T09:20:45.293Z,11.54
2022-10-29T09:23:27.169Z,11.52
2022-10-29T09:25:56.113Z,11.79
2022-10-29T09:28:54.322Z,11.98
2022-10-29T09:31:36.346Z,11.84
2022-10-29T09:34:10.640Z,11.83
2022-10-29T09:36:40.615Z,12.08
2022-10-29T09:39:14.340Z,12.01
2022-10-29T09:41:41.344Z,11.91
2022-10-29T09:44:22.058Z,12.07
2022-10-29T09:47:24.178Z,12.16
2022-10-29T09:50:10.740Z,12.27
2022-10-29T09:52:42.138Z,12.42
2022-10-29T09:55:18.943Z,12.53
2022-10-29T09:57:46.883Z,12.37
2022-10-29T10:00:20.044Z,11.88
2022-10-29T10:02:57.433Z,12.63
2022-10-29T10:05:29.189Z,12.80
2022-10-29T10:08:16.225Z,12.94
2022-10-29T10:11:04.841Z,12.86
2022-10-29T10:13:38.464Z,13.07
2022-10-29T10:16:06.745Z,13.23
2022-10-29T10:18:33.576Z,13.22
2022-10-29T10:21:18.653Z,13.15
2022-10-29T10:23:52.511Z,13.00
2022-10-29T10:26:36.622Z,13.22
2022-10-29T10:29:13.794Z,13.31
2022-10-29T10:31:42.831Z,13.11
2022-10-29T10:34:26.437Z,13.43
2022-10-29T10:37:02.914Z,13.13
2022-10-29T10:39:46.814Z,13.55
2022-10-29T10:42:26.455Z,13.56
2022-10-29T10:44:58.004Z,13.55
2022-10-29T10:47:36.397Z,13.47
2022-10-29T10:50:19.880Z,13.88
2022-10-29T10:52:47.649Z,13.83
2022-10-29T10:55:24.268Z,13.69
2022-10-29T10:57:58.961Z,13.60
2022-10-29T11:00:28.197Z,14.20
2022-10-29T11:03:05.005Z,14.48
2022-10-29T11:05:43.850Z,14.07
2022-10-29T11:08:16.869Z,14.19
2022-10-29T11:10:51.455Z,14.70
2022-10-29T11:13:23.003Z,14.81
2022-10-29T11:15:58.375Z,14.65
2022-10-29T11:18:30.462Z,14.90
2022-10-29T11:21:28.664Z,14.88
2022-10-29T11:24:12.662Z,14.78
2022-10-29T11:26:58.230Z,14.76
2022-10-29T11:29:55.822Z,14.84
2022-10-29T11:32:25.640Z,15.00
2022-10-29T11:35:09.062Z,15.08
2022-10-29T11:37:56.956Z,15.01
2022-10-29T11:40:56.098Z,14.93
2022-10-29T11:43:22.800Z,15.17
2022-10-29T11:45:56.132Z,15.56
2022-10-29T11:48:53.412Z,15.57
2022-10-29T11:51:31.584Z,15.43
2022-10-29T11:53:59.892Z,15.21
2022-10-29T11:56:39.633Z,15.38
2022-10-29T11:59:22.400Z,15.70
2022-10-29T12:02:19.885Z,15.87
2022-10-29T12:05:08.890Z,16.08
2022-10-29T12:08:17.288Z,16.06
2022-10-29T12:11:05.124Z,16.12
2022-10-29T12:13:43.854Z,16.60
2022-10-29T12:16:28.625Z,16.59
2022-10-29T12:19:29.371Z,16.55
2022-10-29T12:21:58.955Z,16.48
2022-10-29T12:24:43.122Z,16.46
2022-10-29T12:27:27.847Z,16.52
2022-10-29T12:30:03.647Z,16.51
2022-10-29T12:32:58.169Z,16.56
2022-10-29T12:35:32.398Z,16.57
2022-10-29T12:38:33.034Z,16.60
2022-10-29T12:41:13.831Z,16.29
2022-10-29T12:43:41.514Z,16.44
2022-10-29T12:46:26.906Z,16.68
2022-10-29T12:49:30.394Z,16.37
2022-10-29T12:52:05.013Z,16.65
2022-10-29T12:54:47.575Z,17.21
2022-10-29T12:57:14.284Z,18.27
2022-10-29T12:59:43.137Z,18.41
2022-10-29T13:02:38.043Z,17.57
2022-10-29T13:05:10.627Z,17.72
2022-10-29T13:07:58.627Z,17.68
2022-10-29T13:10:26.374Z,17.31
2022-10-29T13:12:55.873Z,17.37
2022-10-29T13:15:47.286Z,17.35
2022-10-29T13:18:26.538Z,17.01
2022-10-29T13:20:54.701Z,17.00
2022-10-29T13:23:24.343Z,16.81
2022-10-29T13:25:55.549Z,16.61
2022-10-29T13:28:22.084Z,16.72
2022-10-29T13:30:55.019Z,16.62
2022-10-29T13:33:27.717Z,16.46
2022-10-29T13:35:57.336Z,16.61
2022-10-29T13:38:36.119Z,16.54
2022-10-29T13:41:13.970Z,16.46
2022-10-29T13:43:44.019Z,16.38
2022-10-29T13:46:13.741Z,16.37
2022-10-29T13:48:42.217Z,16.15
2022-10-29T13:51:16.176Z,16.14
2022-10-29T13:53:51.707Z,16.01
2022-10-29T13:56:28.728Z,15.84
2022-10-29T13:58:57.481Z,15.96
2022-10-29T14:01:24.882Z,15.93
2022-10-29T14:04:04.131Z,16.03
2022-10-29T14:06:36.407Z,16.15
2022-10-29T14:09:11.083Z,16.38
2022-10-29T14:11:42.798Z,16.25
2022-10-29T14:14:58.831Z,16.13
2022-10-29T14:17:25.526Z,16.30
2022-10-29T14:19:52.612Z,16.40
2022-10-29T14:22:19.272Z,16.36
2022-10-29T14:24:45.955Z,16.33
2022-10-29T14:27:16.386Z,16.06
2022-10-29T14:29:43.210Z,16.25
2022-10-29T14:32:15.054Z,16.28
2022-10-29T14:34:42.401Z,16.17
2022-10-29T14:37:28.410Z,15.89
2022-10-29T14:39:59.687Z,15.86
2022-10-29T14:42:36.840Z,15.93
2022-10-29T14:45:18.389Z,15.85
2022-10-29T14:47:50.430Z,15.77
2022-10-29T14:50:23.305Z,15.99
2022-10-29T14:52:55.444Z,15.95
2022-10-29T14:55:31.033Z,15.59
2022-10-29T14:58:00.646Z,15.93
2022-10-29T15:00:33.495Z,15.76
2022-10-29T15:03:00.651Z,15.82
2022-10-29T15:05:33.053Z,15.91
2022-10-29T15:08:11.862Z,16.03
2022-10-29T15:10:50.450Z,15.84
2022-10-29T15:13:29.332Z,15.84
2022-10-29T15:16:08.438Z,15.45
2022-10-29T15:18:37.652Z,15.62
2022-10-29T15:21:05.490Z,15.43
2022-10-29T15:23:43.489Z,15.49
2022-10-29T15:26:16.227Z,15.31
2022-10-29T15:28:48.427Z,15.27
2022-10-29T15:31:34.365Z,15.28
2022-10-29T15:34:08.910Z,15.01
2022-10-29T15:36:53.882Z,14.98
2022-10-29T15:39:22.918Z,15.01
2022-10-29T15:41:50.530Z,14.94
2022-10-29T15:44:29.982Z,14.70
2022-10-29T15:46:59.278Z,14.84
2022-10-29T15:49:31.347Z,14.81
2022-10-29T15:52:00.613Z,14.61
2022-10-29T15:54:28.668Z,14.38
2022-10-29T15:56:55.411Z,14.57
2022-10-29T15:59:25.847Z,14.37
2022-10-29T16:01:52.741Z,14.13
2022-10-29T16:04:19.509Z,14.42
2022-10-29T16:06:46.255Z,14.35
2022-10-29T16:09:19.781Z,14.33
2022-10-29T16:11:46.505Z,13.99
2022-10-29T16:14:13.169Z,13.97
2022-10-29T16:16:39.750Z,14.06
2022-10-29T16:19:06.354Z,13.96
2022-10-29T16:21:33.244Z,13.91
2022-10-29T16:23:59.847Z,14.03
2022-10-29T16:26:26.852Z,14.11
2022-10-29T16:28:53.574Z,14.00
2022-10-29T16:31:28.504Z,14.03
2022-10-29T16:33:58.459Z,13.99
2022-10-29T16:36:25.642Z,13.93
2022-10-29T16:38:52.326Z,13.59
2022-10-29T16:41:20.322Z,13.76
2022-10-29T16:43:47.750Z,13.68
2022-10-29T16:46:14.950Z,13.57
2022-10-29T16:48:41.880Z,13.49
2022-10-29T16:51:08.505Z,13.31
2022-10-29T16:53:35.591Z,13.32
2022-10-29T16:56:02.228Z,13.39
2022-10-29T16:58:29.021Z,13.28
2022-10-29T17:01:04.175Z,13.11
2022-10-29T17:03:31.260Z,13.12
2022-10-29T17:06:03.205Z,12.79
2022-10-29T17:08:37.618Z,12.91
2022-10-29T17:11:10.157Z,12.63
2022-10-29T17:13:39.781Z,12.80
2022-10-29T17:16:14.704Z,12.63
2022-10-29T17:18:42.495Z,12.45
2022-10-29T17:21:09.280Z,12.70
2022-10-29T17:23:36.018Z,12.67
2022-10-29T17:26:02.968Z,12.54
2022-10-29T17:28:29.750Z,12.45
2022-10-29T17:30:56.414Z,12.55
2022-10-29T17:33:23.058Z,12.42
2022-10-29T17:35:49.743Z,12.33
2022-10-29T17:38:16.385Z,12.57
2022-10-29T17:40:44.386Z,12.22
2022-10-29T17:43:11.055Z,12.52
2022-10-29T17:45:37.721Z,12.67
2022-10-29T17:48:04.445Z,12.60
2022-10-29T17:50:31.134Z,12.38
2022-10-29T17:52:58.515Z,12.53
2022-10-29T17:55:25.173Z,12.19
2022-10-29T17:57:51.932Z,12.07
2022-10-29T18:00:19.000Z,12.03
2022-10-29T18:02:49.657Z,11.87
2022-10-29T18:05:16.664Z,11.71
2022-10-29T18:07:43.315Z,11.92
2022-10-29T18:10:10.105Z,11.93
2022-10-29T18:12:36.774Z,11.87
2022-10-29T18:15:03.584Z,11.74
2022-10-29T18:17:31.501Z,11.78
2022-10-29T18:19:58.138Z,11.79
2022-10-29T18:22:24.814Z,11.94
2022-10-29T18:24:51.394Z,11.76
2022-10-29T18:27:18.098Z,11.94
2022-10-29T18:29:46.215Z,11.91
2022-10-29T18:32:12.873Z,11.57
2022-10-29T18:34:39.601Z,11.83
2022-10-29T18:37:06.671Z,11.89
2022-10-29T18:39:33.575Z,11.61
2022-10-29T18:42:00.192Z,11.82
2022-10-29T18:44:26.895Z,11.70
2022-10-29T18:46:53.512Z,11.68
2022-10-29T18:49:20.257Z,11.55
2022-10-29T18:51:46.955Z,11.57
2022-10-29T18:54:14.585Z,11.71
2022-10-29T18:56:41.339Z,11.57
2022-10-29T18:59:10.189Z,11.64
2022-10-29T19:01:37.104Z,11.44
2022-10-29T19:04:06.728Z,11.34
2022-10-29T19:06:35.455Z,11.52
2022-10-29T19:09:07.992Z,11.20
2022-10-29T19:11:35.375Z,11.62
2022-10-29T19:14:05.031Z,11.49
2022-10-29T19:16:32.619Z,11.62
2022-10-29T19:19:11.920Z,11.50
2022-10-29T19:21:39.102Z,11.49
2022-10-29T19:24:06.887Z,11.19
2022-10-29T19:26:35.366Z,11.16
2022-10-29T19:29:05.250Z,11.08
2022-10-29T19:31:33.663Z,11.45
2022-10-29T19:34:02.791Z,11.33
2022-10-29T19:36:30.078Z,11.29
2022-10-29T19:38:57.553Z,11.28
2022-10-29T19:41:24.326Z,11.00
2022-10-29T19:43:51.000Z,11.02
2022-10-29T19:46:22.843Z,11.35
2022-10-29T19:48:54.760Z,11.36
2022-10-29T19:51:22.210Z,11.49
2022-10-29T19:53:51.461Z,11.44
2022-10-29T19:56:19.061Z,11.18
2022-10-29T19:58:49.101Z,11.08
2022-10-29T20:01:18.184Z,11.04
2022-10-29T20:03:45.997Z,10.54
2022-10-29T20:06:13.158Z,10.98
2022-10-29T20:08:39.807Z,10.99
2022-10-29T20:11:06.858Z,11.04
2022-10-29T20:13:33.546Z,11.08
2022-10-29T20:16:01.394Z,10.97
2022-10-29T20:18:28.135Z,10.62
2022-10-29T20:20:56.472Z,10.74
2022-10-29T20:23:24.002Z,10.73
2022-10-29T20:25:50.761Z,11.03
2022-10-29T20:28:17.510Z,11.00
2022-10-29T20:30:44.194Z,10.75
2022-10-29T20:33:10.868Z,10.70
2022-10-29T20:35:37.894Z,10.70
2022-10-29T20:38:04.759Z,10.91
2022-10-29T20:40:34.091Z,10.77
2022-10-29T20:43:00.990Z,10.42
2022-10-29T20:45:27.678Z,10.48
2022-10-29T20:47:54.470Z,10.70
2022-10-29T20:50:21.342Z,10.56
2022-10-29T20:52:49.039Z,10.68
2022-10-29T20:55:16.429Z,10.46
2022-10-29T20:57:43.109Z,10.78
2022-10-29T21:00:13.380Z,10.39
2022-10-29T21:02:40.468Z,10.40
2022-10-29T21:05:07.527Z,10.61
2022-10-29T21:07:34.130Z,10.28
2022-10-29T21:10:00.758Z,10.41
2022-10-29T21:12:27.332Z,10.36
2022-10-29T21:14:53.927Z,10.58
2022-10-29T21:17:22.258Z,10.50
2022-10-29T21:19:49.311Z,10.71
2022-10-29T21:22:19.081Z,10.27
2022-10-29T21:24:46.095Z,10.91
2022-10-29T21:27:12.823Z,10.72
2022-10-29T21:29:39.489Z,10.53
2022-10-29T21:32:06.346Z,10.99
2022-10-29T21:34:33.117Z,10.51
2022-10-29T21:36:59.734Z,10.72
2022-10-29T21:39:27.630Z,10.35
2022-10-29T21:41:54.327Z,10.01
2022-10-29T21:44:20.993Z,9.99
2022-10-29T21:46:47.608Z,10.04
2022-10-29T21:49:14.214Z,10.32
2022-10-29T21:51:40.800Z,10.14
2022-10-29T21:54:07.713Z,10.22
2022-10-29T21:56:34.383Z,10.26
2022-10-29T21:59:01.066Z,10.29
2022-10-29T22:01:27.860Z,10.30
2022-10-29T22:03:54.570Z,10.20
2022-10-29T22:06:23.290Z,10.34
2022-10-29T22:08:57.317Z,10.26
2022-10-29T22:11:25.134Z,10.28
2022-10-29T22:13:53.226Z,10.15
2022-10-29T22:16:20.892Z,10.20
2022-10-29T22:18:49.734Z,10.14
2022-10-29T22:21:20.035Z,10.04
2022-10-29T22:23:48.732Z,9.91
2022-10-29T22:26:17.760Z,9.91
2022-10-29T22:28:44.756Z,10.04
2022-10-29T22:31:11.436Z,9.59
2022-10-29T22:33:38.172Z,9.94
2022-10-29T22:36:05.933Z,9.92
2022-10-29T22:38:32.661Z,9.63
2022-10-29T22:41:04.221Z,9.72
2022-10-29T22:43:30.985Z,9.69
2022-10-29T22:45:57.742Z,9.52
2022-10-29T22:48:24.497Z,9.76
2022-10-29T22:50:59.077Z,9.59
2022-10-29T22:53:25.767Z,9.62
2022-10-29T22:55:53.136Z,9.53
2022-10-29T22:58:20.266Z,9.45
2022-10-29T23:00:46.960Z,9.28
2022-10-29T23:03:13.800Z,9.27
2022-10-29T23:05:40.461Z,9.37
2022-10-29T23:08:07.183Z,9.29
2022-10-29T23:10:33.781Z,9.24
2022-10-29T23:13:00.412Z,9.33
2022-10-29T23:15:27.043Z,9.61
2022-10-29T23:17:53.837Z,9.63
2022-10-29T23:20:20.568Z,9.47
2022-10-29T23:22:47.197Z,9.36
2022-10-29T23:25:13.773Z,9.53
2022-10-29T23:27:40.399Z,9.29
2022-10-29T23:30:07.655Z,9.41
2022-10-29T23:32:34.319Z,9.35
2022-10-29T23:35:00.911Z,9.15
2022-10-29T23:37:28.284Z,9.07
2022-10-29T23:39:54.895Z,9.29
2022-10-29T23:42:21.519Z,9.15
2022-10-29T23:44:48.206Z,9.15
2022-10-29T23:47:14.791Z,9.24
2022-10-29T23:49:41.478Z,9.17
2022-10-29T23:52:08.059Z,8.75
2022-10-29T23:54:34.719Z,8.94
2022-10-29T23:57:01.427Z,8.95
2022-10-29T23:59:27.985Z,8.78
